createdAt,value
2022-11-08T00:00:52.020Z,6.486816
2022-11-08T00:02:01.902Z,6.456604
2022-11-08T00:03:10.629Z,6.436462
2022-11-08T00:04:20.328Z,6.416321
2022-11-08T00:05:28.107Z,6.40625
2022-11-08T00:06:37.790Z,6.40625
2022-11-08T00:07:47.484Z,6.376038
2022-11-08T00:08:56.318Z,6.376038
2022-11-08T00:10:06.064Z,6.345825
2022-11-08T00:11:13.800Z,6.345825
2022-11-08T00:12:22.517Z,6.325684
2022-11-08T00:13:32.249Z,6.325684
2022-11-08T00:14:40.109Z,6.325684
2022-11-08T00:15:49.798Z,6.305542
2022-11-08T00:16:58.511Z,6.305542
2022-11-08T00:18:07.312Z,6.295471
2022-11-08T00:19:16.948Z,6.27533
2022-11-08T00:20:24.681Z,6.305542
2022-11-08T00:21:33.402Z,6.295471
2022-11-08T00:22:43.184Z,6.305542
2022-11-08T00:23:51.932Z,6.295471
2022-11-08T00:25:01.619Z,6.305542
2022-11-08T00:26:11.377Z,6.295471
2022-11-08T00:27:20.146Z,6.325684
2022-11-08T00:28:29.849Z,6.305542
2022-11-08T00:29:39.578Z,6.325684
2022-11-08T00:30:48.294Z,6.325684
2022-11-08T00:31:58.152Z,6.355896
2022-11-08T00:33:05.864Z,6.325684
2022-11-08T00:34:15.641Z,6.345825
2022-11-08T00:35:24.367Z,6.325684
2022-11-08T00:36:32.259Z,6.295471
2022-11-08T00:37:42.077Z,6.27533
2022-11-08T00:38:51.820Z,6.305542
2022-11-08T00:40:01.521Z,6.295471
2022-11-08T00:41:11.300Z,6.265259
2022-11-08T00:42:20.895Z,6.265259
2022-11-08T00:43:30.746Z,6.265259
2022-11-08T00:44:40.442Z,6.235046
2022-11-08T00:45:49.259Z,6.235046
2022-11-08T00:46:58.106Z,6.204834
2022-11-08T00:48:07.845Z,6.174622
2022-11-08T00:49:16.597Z,6.144409
2022-11-08T00:50:26.304Z,6.124268
2022-11-08T00:51:35.059Z,6.114197
2022-11-08T00:52:43.765Z,6.094055
2022-11-08T00:53:53.518Z,6.083984
2022-11-08T00:55:01.244Z,6.083984
2022-11-08T00:56:11.013Z,6.094055
2022-11-08T00:57:24.672Z,6.094055
2022-11-08T00:58:31.414Z,6.094055
2022-11-08T00:59:41.119Z,6.114197
2022-11-08T01:00:49.864Z,6.124268
2022-11-08T01:01:59.710Z,6.124268
2022-11-08T01:03:09.384Z,6.124268
2022-11-08T01:04:18.090Z,6.124268
2022-11-08T01:05:26.811Z,6.124268
2022-11-08T01:06:36.653Z,6.144409
2022-11-08T01:07:47.262Z,6.164551
2022-11-08T01:08:56.941Z,6.174622
2022-11-08T01:10:06.663Z,6.174622
2022-11-08T01:11:15.379Z,6.194763
2022-11-08T01:12:25.084Z,6.204834
2022-11-08T01:13:32.761Z,6.224976
2022-11-08T01:14:41.436Z,6.224976
2022-11-08T01:15:51.336Z,6.224976
2022-11-08T01:16:59.967Z,6.194763
2022-11-08T01:18:09.663Z,6.174622
2022-11-08T01:19:18.349Z,6.144409
2022-11-08T01:20:26.046Z,6.144409
2022-11-08T01:21:35.738Z,6.174622
2022-11-08T01:22:44.385Z,6.204834
2022-11-08T01:23:54.096Z,6.235046
2022-11-08T01:25:03.811Z,6.255188
2022-11-08T01:26:12.479Z,6.235046
2022-11-08T01:27:22.230Z,6.235046
2022-11-08T01:28:31.909Z,6.255188
2022-11-08T01:29:39.649Z,6.255188
2022-11-08T01:30:49.370Z,6.235046
2022-11-08T01:31:57.102Z,6.255188
2022-11-08T01:33:05.813Z,6.235046
2022-11-08T01:34:15.584Z,6.265259
2022-11-08T01:35:23.348Z,6.27533
2022-11-08T01:36:33.165Z,6.295471
2022-11-08T01:37:41.884Z,6.305542
2022-11-08T01:38:49.567Z,6.355896
2022-11-08T01:39:59.309Z,6.416321
2022-11-08T01:41:09.039Z,6.436462
2022-11-08T01:42:18.724Z,6.456604
2022-11-08T01:43:28.568Z,6.456604
2022-11-08T01:44:37.346Z,6.446533
2022-11-08T01:45:47.025Z,6.436462
2022-11-08T01:46:56.769Z,6.40625
2022-11-08T01:48:07.676Z,6.355896
2022-11-08T01:49:17.410Z,6.345825
2022-11-08T01:50:26.070Z,6.305542
2022-11-08T01:51:34.819Z,6.295471
2022-11-08T01:52:44.647Z,6.265259
2022-11-08T01:53:52.382Z,6.224976
2022-11-08T01:55:02.071Z,6.194763
2022-11-08T01:56:10.811Z,6.164551
2022-11-08T01:57:19.606Z,6.124268
2022-11-08T01:58:29.425Z,6.083984
2022-11-08T01:59:38.167Z,6.053772
2022-11-08T02:00:46.920Z,6.013489
2022-11-08T02:01:56.759Z,5.973206
2022-11-08T02:03:06.353Z,5.942993
2022-11-08T02:04:16.058Z,5.912781
2022-11-08T02:05:25.737Z,5.892639
2022-11-08T02:06:35.592Z,5.862427
2022-11-08T02:07:45.332Z,5.822144
2022-11-08T02:08:54.067Z,5.761719
2022-11-08T02:10:02.730Z,5.721436
2022-11-08T02:11:12.409Z,5.691223
2022-11-08T02:12:21.153Z,5.65094
2022-11-08T02:13:29.860Z,5.610657
2022-11-08T02:14:39.578Z,5.590515
2022-11-08T02:15:48.326Z,5.570374
2022-11-08T02:16:58.026Z,5.53009
2022-11-08T02:18:05.692Z,5.509949
2022-11-08T02:19:14.379Z,5.479736
2022-11-08T02:20:24.150Z,5.479736
2022-11-08T02:21:32.804Z,5.469666
2022-11-08T02:22:42.498Z,5.469666
2022-11-08T02:23:51.235Z,5.459595
2022-11-08T02:24:58.986Z,5.429382
2022-11-08T02:26:08.768Z,5.409241
2022-11-08T02:27:17.475Z,5.389099
2022-11-08T02:28:26.214Z,5.358887
2022-11-08T02:29:35.952Z,5.348816
2022-11-08T02:30:44.887Z,5.328674
2022-11-08T02:31:54.547Z,5.27832
2022-11-08T02:33:02.417Z,5.227966
2022-11-08T02:34:11.152Z,5.197754
2022-11-08T02:35:19.891Z,5.137329
2022-11-08T02:36:29.579Z,5.097046
2022-11-08T02:37:37.310Z,5.036621
2022-11-08T02:38:47.015Z,5.016479
2022-11-08T02:39:55.725Z,5.036621
2022-11-08T02:41:05.444Z,5.016479
2022-11-08T02:42:15.240Z,5.036621
2022-11-08T02:43:22.944Z,4.996338
2022-11-08T02:44:32.690Z,4.935913
2022-11-08T02:45:42.365Z,4.885559
2022-11-08T02:46:52.087Z,4.815063
2022-11-08T02:48:01.931Z,4.815063
2022-11-08T02:49:11.500Z,4.815063
2022-11-08T02:50:19.267Z,4.855347
2022-11-08T02:51:28.014Z,4.855347
2022-11-08T02:52:36.736Z,4.855347
2022-11-08T02:53:45.469Z,4.855347
2022-11-08T02:54:55.253Z,4.835205
2022-11-08T02:56:02.957Z,4.855347
2022-11-08T02:57:12.729Z,4.885559
2022-11-08T02:58:22.535Z,4.885559
2022-11-08T02:59:32.318Z,4.865417
2022-11-08T03:00:41.984Z,4.855347
2022-11-08T03:01:49.817Z,4.855347
2022-11-08T03:02:59.520Z,4.815063
2022-11-08T03:04:09.279Z,4.815063
2022-11-08T03:05:18.004Z,4.835205
2022-11-08T03:06:27.777Z,4.835205
2022-11-08T03:07:37.562Z,4.784851
2022-11-08T03:08:46.324Z,4.77478
2022-11-08T03:09:56.015Z,4.754639
2022-11-08T03:11:04.817Z,4.744568
2022-11-08T03:12:12.475Z,4.734497
2022-11-08T03:13:22.306Z,4.714355
2022-11-08T03:14:32.014Z,4.714355
2022-11-08T03:15:41.823Z,4.684143
2022-11-08T03:16:50.539Z,4.664001
2022-11-08T03:17:58.254Z,4.664001
2022-11-08T03:19:07.029Z,4.623718
2022-11-08T03:20:15.802Z,4.623718
2022-11-08T03:21:24.565Z,4.623718
2022-11-08T03:22:35.389Z,4.603577
2022-11-08T03:23:43.131Z,4.603577
2022-11-08T03:24:52.847Z,4.603577
2022-11-08T03:26:01.656Z,4.593506
2022-11-08T03:27:10.404Z,4.583435
2022-11-08T03:28:22.815Z,4.583435
2022-11-08T03:29:29.939Z,4.563293
2022-11-08T03:30:38.690Z,4.583435
2022-11-08T03:31:48.413Z,4.583435
2022-11-08T03:32:57.208Z,4.553223
2022-11-08T03:34:06.863Z,4.533081
2022-11-08T03:35:15.640Z,4.502869
2022-11-08T03:36:23.356Z,4.492798
2022-11-08T03:37:33.067Z,4.492798
2022-11-08T03:38:42.745Z,4.482727
2022-11-08T03:39:52.501Z,4.452515
2022-11-08T03:41:02.205Z,4.482727
2022-11-08T03:42:10.919Z,4.442444
2022-11-08T03:43:20.621Z,4.442444
2022-11-08T03:44:30.381Z,4.412231
2022-11-08T03:45:40.111Z,4.422302
2022-11-08T03:46:49.804Z,4.452515
2022-11-08T03:47:58.526Z,4.482727
2022-11-08T03:49:07.374Z,4.482727
2022-11-08T03:50:17.083Z,4.502869
2022-11-08T03:51:25.823Z,4.492798
2022-11-08T03:52:35.561Z,4.492798
2022-11-08T03:53:43.325Z,4.452515
2022-11-08T03:54:51.012Z,4.452515
2022-11-08T03:56:00.718Z,4.482727
2022-11-08T03:57:09.426Z,4.492798
2022-11-08T03:58:19.486Z,4.52301
2022-11-08T03:59:29.109Z,4.52301
2022-11-08T04:00:38.088Z,4.502869
2022-11-08T04:01:48.081Z,4.492798
2022-11-08T04:02:57.694Z,4.482727
2022-11-08T04:04:07.467Z,4.452515
2022-11-08T04:05:17.314Z,4.452515
2022-11-08T04:06:25.028Z,4.442444
2022-11-08T04:07:33.768Z,4.412231
2022-11-08T04:08:43.502Z,4.412231
2022-11-08T04:09:51.301Z,4.422302
2022-11-08T04:11:01.041Z,4.402161
2022-11-08T04:12:10.818Z,4.382019
2022-11-08T04:13:19.528Z,4.382019
2022-11-08T04:14:29.366Z,4.351807
2022-11-08T04:15:37.077Z,4.311523
2022-11-08T04:16:46.948Z,4.241028
2022-11-08T04:17:56.646Z,4.230957
2022-11-08T04:19:05.389Z,4.160461
2022-11-08T04:20:15.221Z,4.14032
2022-11-08T04:21:24.104Z,4.100037
2022-11-08T04:22:33.018Z,4.100037
2022-11-08T04:23:42.803Z,4.100037
2022-11-08T04:24:51.509Z,4.100037
2022-11-08T04:26:00.213Z,4.079895
2022-11-08T04:27:09.921Z,4.100037
2022-11-08T04:28:17.983Z,4.059753
2022-11-08T04:29:27.484Z,4.059753
2022-11-08T04:30:37.228Z,4.059753
2022-11-08T04:31:47.016Z,4.039612
2022-11-08T04:32:56.784Z,3.989258
2022-11-08T04:34:06.539Z,3.959045
2022-11-08T04:35:15.281Z,3.979187
2022-11-08T04:36:25.013Z,4.049683
2022-11-08T04:37:32.758Z,4.059753
2022-11-08T04:38:40.496Z,4.079895
2022-11-08T04:39:50.229Z,4.100037
2022-11-08T04:40:58.053Z,4.100037
2022-11-08T04:42:06.750Z,4.079895
2022-11-08T04:43:16.532Z,4.059753
2022-11-08T04:44:25.246Z,4.049683
2022-11-08T04:45:34.974Z,4.049683
2022-11-08T04:46:44.672Z,4.039612
2022-11-08T04:47:53.474Z,4.049683
2022-11-08T04:49:03.146Z,4.049683
2022-11-08T04:50:10.908Z,4.059753
2022-11-08T04:51:19.631Z,4.059753
2022-11-08T04:52:29.381Z,4.059753
2022-11-08T04:53:37.071Z,4.039612
2022-11-08T04:54:46.793Z,4.039612
2022-11-08T04:55:56.548Z,4.009399
2022-11-08T04:57:05.296Z,3.989258
2022-11-08T04:58:15.184Z,3.989258
2022-11-08T04:59:23.674Z,4.009399
2022-11-08T05:00:33.512Z,4.01947
2022-11-08T05:01:43.297Z,4.039612
2022-11-08T05:02:51.066Z,4.009399
2022-11-08T05:04:00.809Z,3.989258
2022-11-08T05:05:09.476Z,3.979187
2022-11-08T05:06:17.262Z,3.959045
2022-11-08T05:07:26.942Z,3.959045
2022-11-08T05:08:34.671Z,3.959045
2022-11-08T05:09:44.358Z,3.948975
2022-11-08T05:10:54.065Z,3.948975
2022-11-08T05:12:02.846Z,4.01947
2022-11-08T05:13:12.575Z,4.049683
2022-11-08T05:14:21.683Z,4.120178
2022-11-08T05:15:30.408Z,4.14032
2022-11-08T05:16:40.148Z,4.160461
2022-11-08T05:17:47.836Z,4.170532
2022-11-08T05:18:57.635Z,4.160461
2022-11-08T05:20:07.539Z,4.170532
2022-11-08T05:21:17.287Z,4.160461
2022-11-08T05:22:27.101Z,4.130249
2022-11-08T05:23:36.808Z,4.130249
2022-11-08T05:24:46.488Z,4.100037
2022-11-08T05:25:56.270Z,4.059753
2022-11-08T05:27:04.971Z,4.049683
2022-11-08T05:28:14.898Z,4.01947
2022-11-08T05:29:24.530Z,4.01947
2022-11-08T05:30:34.244Z,4.009399
2022-11-08T05:31:44.004Z,3.979187
2022-11-08T05:32:52.717Z,3.979187
2022-11-08T05:34:02.418Z,3.948975
2022-11-08T05:35:12.217Z,3.918762
2022-11-08T05:36:21.999Z,3.918762
2022-11-08T05:37:31.856Z,3.868408
2022-11-08T05:38:41.614Z,3.878479
2022-11-08T05:39:51.368Z,3.858337
2022-11-08T05:41:01.070Z,3.858337
2022-11-08T05:42:09.916Z,3.838196
2022-11-08T05:43:18.799Z,3.858337
2022-11-08T05:44:28.272Z,3.828125
2022-11-08T05:45:37.166Z,3.828125
2022-11-08T05:46:47.002Z,3.858337
2022-11-08T05:47:56.768Z,3.838196
2022-11-08T05:49:05.561Z,3.838196
2022-11-08T05:50:18.360Z,3.858337
2022-11-08T05:51:25.155Z,3.838196
2022-11-08T05:52:32.887Z,3.838196
2022-11-08T05:53:42.663Z,3.828125
2022-11-08T05:54:52.371Z,3.858337
2022-11-08T05:56:02.100Z,3.858337
2022-11-08T05:57:11.800Z,3.858337
2022-11-08T05:58:22.517Z,3.858337
2022-11-08T05:59:32.232Z,3.868408
2022-11-08T06:00:41.044Z,3.908691
2022-11-08T06:01:50.778Z,3.948975
2022-11-08T06:03:00.543Z,3.938904
2022-11-08T06:04:09.183Z,3.918762
2022-11-08T06:05:17.885Z,3.908691
2022-11-08T06:06:27.740Z,3.908691
2022-11-08T06:07:37.483Z,3.908691
2022-11-08T06:08:50.181Z,3.938904
2022-11-08T06:09:55.942Z,3.938904
2022-11-08T06:11:05.732Z,3.979187
2022-11-08T06:12:15.511Z,3.979187
2022-11-08T06:13:24.203Z,3.938904
2022-11-08T06:14:32.942Z,3.908691
2022-11-08T06:15:42.637Z,3.918762
2022-11-08T06:16:51.379Z,3.959045
2022-11-08T06:18:01.167Z,3.959045
2022-11-08T06:19:09.896Z,3.948975
2022-11-08T06:20:19.601Z,3.948975
2022-11-08T06:21:29.305Z,3.938904
2022-11-08T06:22:39.059Z,3.948975
2022-11-08T06:23:47.933Z,3.959045
2022-11-08T06:24:57.682Z,4.01947
2022-11-08T06:26:07.373Z,3.989258
2022-11-08T06:27:16.084Z,3.979187
2022-11-08T06:28:24.856Z,3.959045
2022-11-08T06:29:33.604Z,4.009399
2022-11-08T06:30:43.324Z,4.039612
2022-11-08T06:31:53.072Z,4.100037
2022-11-08T06:33:01.784Z,4.170532
2022-11-08T06:34:12.498Z,4.230957
2022-11-08T06:35:21.357Z,4.311523
2022-11-08T06:36:31.601Z,4.402161
2022-11-08T06:37:41.337Z,4.452515
2022-11-08T06:38:49.062Z,4.553223
2022-11-08T06:39:57.877Z,4.633789
2022-11-08T06:41:07.846Z,4.744568
2022-11-08T06:42:17.622Z,4.855347
2022-11-08T06:43:27.958Z,4.996338
2022-11-08T06:44:36.150Z,5.1474
2022-11-08T06:45:43.902Z,5.318604
2022-11-08T06:46:53.780Z,5.479736
2022-11-08T06:48:01.448Z,5.620728
2022-11-08T06:49:10.224Z,5.751648
2022-11-08T06:50:19.945Z,5.912781
2022-11-08T06:51:28.679Z,6.083984
2022-11-08T06:52:38.419Z,6.204834
2022-11-08T06:53:48.168Z,6.305542
2022-11-08T06:54:56.918Z,6.436462
2022-11-08T06:56:06.687Z,6.617737
2022-11-08T06:57:16.479Z,6.718445
2022-11-08T06:58:26.256Z,6.809082
2022-11-08T06:59:35.997Z,6.879578
2022-11-08T07:00:44.715Z,6.879578
2022-11-08T07:01:54.618Z,6.929932
2022-11-08T07:03:03.337Z,7.000427
2022-11-08T07:04:11.993Z,7.101135
2022-11-08T07:05:21.731Z,7.211914
2022-11-08T07:06:29.458Z,7.332764
2022-11-08T07:07:39.215Z,7.54425
2022-11-08T07:08:48.976Z,7.725525
2022-11-08T07:10:03.674Z,7.876587
2022-11-08T07:11:08.612Z,7.967224
2022-11-08T07:12:18.372Z,8.057861
2022-11-08T07:13:27.116Z,8.198853
2022-11-08T07:14:36.885Z,8.259277
2022-11-08T07:15:44.676Z,8.299561
2022-11-08T07:16:53.462Z,8.440552
2022-11-08T07:18:03.364Z,8.551331
2022-11-08T07:19:11.987Z,8.561401
2022-11-08T07:20:21.713Z,8.712463
2022-11-08T07:21:30.543Z,8.843384
2022-11-08T07:22:39.257Z,8.954163
2022-11-08T07:23:49.079Z,9.075012
2022-11-08T07:24:56.853Z,9.155579
2022-11-08T07:26:05.584Z,9.135437
2022-11-08T07:27:15.580Z,9.155579
2022-11-08T07:28:24.260Z,9.226074
2022-11-08T07:29:33.979Z,9.477844
2022-11-08T07:30:43.758Z,9.719543
2022-11-08T07:31:52.509Z,9.971313
2022-11-08T07:33:02.338Z,10.162659
2022-11-08T07:34:11.037Z,10.313721
2022-11-08T07:35:19.763Z,10.354004
2022-11-08T07:36:29.501Z,10.4245
2022-11-08T07:37:38.297Z,10.535278
2022-11-08T07:38:48.066Z,10.535278
2022-11-08T07:39:56.796Z,10.565491
2022-11-08T07:41:04.508Z,10.605774
2022-11-08T07:42:14.221Z,10.666199
2022-11-08T07:43:22.026Z,10.817261
2022-11-08T07:44:31.848Z,10.897827
2022-11-08T07:45:41.698Z,10.92804
2022-11-08T07:46:49.483Z,10.988464
2022-11-08T07:47:59.202Z,10.917969
2022-11-08T07:49:09.931Z,10.776978
2022-11-08T07:50:18.675Z,10.857544
2022-11-08T07:51:28.429Z,10.887756
2022-11-08T07:52:36.177Z,10.887756
2022-11-08T07:53:45.889Z,10.857544
2022-11-08T07:54:56.649Z,10.887756
2022-11-08T07:56:04.441Z,10.988464
2022-11-08T07:57:14.150Z,11.109314
2022-11-08T07:58:23.919Z,11.320801
2022-11-08T07:59:32.724Z,11.512146
2022-11-08T08:00:42.460Z,11.552429
2022-11-08T08:01:52.306Z,11.481934
2022-11-08T08:03:01.197Z,11.592712
2022-11-08T08:04:09.811Z,11.703491
2022-11-08T08:05:17.494Z,11.804199
2022-11-08T08:06:27.270Z,11.884766
2022-11-08T08:07:36.096Z,11.884766
2022-11-08T08:08:43.896Z,11.985474
2022-11-08T08:09:53.663Z,12.06604
2022-11-08T08:11:02.434Z,12.19696
2022-11-08T08:12:11.141Z,12.247314
2022-11-08T08:13:21.392Z,12.207031
2022-11-08T08:14:30.912Z,12.247314
2022-11-08T08:15:40.645Z,12.468872
2022-11-08T08:16:50.486Z,12.791138
2022-11-08T08:18:00.217Z,12.901917
2022-11-08T08:19:10.013Z,13.153687
2022-11-08T08:20:17.768Z,13.254395
2022-11-08T08:21:27.530Z,12.861633
2022-11-08T08:22:36.320Z,12.680359
2022-11-08T08:23:45.066Z,12.720642
2022-11-08T08:24:56.488Z,12.730713
2022-11-08T08:26:04.562Z,12.861633
2022-11-08T08:27:14.247Z,12.9422
2022-11-08T08:28:23.017Z,12.901917
2022-11-08T08:29:32.838Z,12.9422
2022-11-08T08:30:42.645Z,12.801208
2022-11-08T08:31:52.410Z,12.901917
2022-11-08T08:33:22.266Z,13.093262
2022-11-08T08:34:11.944Z,13.274536
2022-11-08T08:35:20.620Z,13.334961
2022-11-08T08:36:28.615Z,13.284607
2022-11-08T08:37:38.358Z,13.375244
2022-11-08T08:38:48.196Z,13.224182
2022-11-08T08:39:56.996Z,13.002625
2022-11-08T08:41:06.779Z,12.82135
2022-11-08T08:42:16.652Z,12.720642
2022-11-08T08:43:25.460Z,12.831421
2022-11-08T08:44:35.249Z,13.032837
2022-11-08T08:45:43.029Z,13.284607
2022-11-08T08:46:52.781Z,13.385315
2022-11-08T08:48:02.572Z,13.69751
2022-11-08T08:49:12.399Z,13.929138
2022-11-08T08:50:22.196Z,14.150696
2022-11-08T08:51:31.898Z,14.251404
2022-11-08T08:52:40.608Z,14.321899
2022-11-08T08:53:50.327Z,14.402466
2022-11-08T08:55:00.157Z,14.503174
2022-11-08T08:56:09.883Z,14.654236
2022-11-08T08:57:19.610Z,14.724731
2022-11-08T08:58:27.311Z,14.916077
2022-11-08T09:01:58.478Z,15.550537
2022-11-08T09:03:08.267Z,15.308838
2022-11-08T09:04:16.025Z,15.218201
2022-11-08T09:05:25.759Z,15.067139
2022-11-08T09:06:35.485Z,14.906006
2022-11-08T09:07:44.161Z,14.845581
2022-11-08T09:08:53.895Z,14.815369
2022-11-08T09:10:02.614Z,14.95636
2022-11-08T09:11:10.363Z,14.936218
2022-11-08T09:12:20.151Z,14.986572
2022-11-08T09:13:29.017Z,15.016785
2022-11-08T09:14:38.716Z,15.167847
2022-11-08T09:15:48.429Z,15.20813
2022-11-08T09:16:56.373Z,15.278625
2022-11-08T09:18:06.115Z,15.328979
2022-11-08T09:19:14.846Z,15.570679
2022-11-08T09:20:24.594Z,15.983582
2022-11-08T09:21:34.368Z,16.305847
2022-11-08T09:22:42.136Z,16.527405
2022-11-08T09:23:50.840Z,16.235352
2022-11-08T09:25:01.565Z,15.943298
2022-11-08T09:26:11.407Z,15.762024
2022-11-08T09:27:20.138Z,15.721741
2022-11-08T09:28:31.396Z,15.731812
2022-11-08T09:29:36.642Z,15.792236
2022-11-08T09:30:46.431Z,15.802307
2022-11-08T09:31:55.171Z,15.862732
2022-11-08T09:33:03.979Z,15.943298
2022-11-08T09:34:15.046Z,15.973511
2022-11-08T09:35:23.728Z,15.953369
2022-11-08T09:36:33.605Z,16.013794
2022-11-08T09:37:45.580Z,16.054077
2022-11-08T09:38:53.095Z,16.124573
2022-11-08T09:40:02.961Z,15.973511
2022-11-08T09:41:11.698Z,15.903015
2022-11-08T09:42:21.496Z,15.913086
2022-11-08T09:43:31.289Z,15.882874
2022-11-08T09:44:38.986Z,15.802307
2022-11-08T09:45:48.800Z,15.751953
2022-11-08T09:46:57.528Z,15.701599
2022-11-08T09:48:05.865Z,15.721741
2022-11-08T09:49:15.075Z,15.731812
2022-11-08T09:50:23.807Z,15.510254
2022-11-08T09:51:33.592Z,15.389404
2022-11-08T09:52:43.302Z,15.389404
2022-11-08T09:53:52.056Z,15.4599
2022-11-08T09:55:01.849Z,15.641174
2022-11-08T09:56:10.535Z,15.550537
2022-11-08T09:57:19.393Z,15.399475
2022-11-08T09:58:29.176Z,15.399475
2022-11-08T09:59:38.973Z,15.510254
2022-11-08T10:00:48.735Z,15.550537
2022-11-08T10:01:58.627Z,15.550537
2022-11-08T10:03:06.454Z,15.550537
2022-11-08T10:04:16.192Z,15.550537
2022-11-08T10:05:23.928Z,15.520325
2022-11-08T10:06:33.753Z,15.58075
2022-11-08T10:07:43.454Z,15.641174
2022-11-08T10:08:53.231Z,15.731812
2022-11-08T10:10:02.962Z,15.923157
2022-11-08T10:11:12.683Z,16.225281
2022-11-08T10:12:21.515Z,16.527405
2022-11-08T10:13:30.316Z,16.829529
2022-11-08T10:14:49.147Z,17.242432
2022-11-08T10:15:51.159Z,17.524414
2022-11-08T10:17:00.956Z,17.574768
2022-11-08T10:18:08.841Z,17.524414
2022-11-08T10:19:18.585Z,17.544556
2022-11-08T10:20:28.421Z,17.796326
2022-11-08T10:21:38.151Z,18.09845
2022-11-08T10:22:47.943Z,18.289795
2022-11-08T10:23:56.708Z,18.370361
2022-11-08T10:25:06.491Z,18.440857
2022-11-08T10:26:16.242Z,18.491211
2022-11-08T10:27:26.911Z,18.309937
2022-11-08T10:28:36.670Z,18.148804
2022-11-08T10:29:46.458Z,18.027954
2022-11-08T10:30:56.191Z,17.665405
2022-11-08T10:32:05.033Z,17.645264
2022-11-08T10:33:14.919Z,17.675476
2022-11-08T10:34:24.502Z,17.705688
2022-11-08T10:35:34.324Z,17.756042
2022-11-08T10:36:43.943Z,17.786255
2022-11-08T10:37:51.895Z,17.776184
2022-11-08T10:39:01.629Z,17.715759
2022-11-08T10:40:10.373Z,17.665405
2022-11-08T10:41:19.199Z,17.59491
2022-11-08T10:42:28.897Z,17.484131
2022-11-08T10:43:36.797Z,17.443848
2022-11-08T10:44:46.534Z,17.383423
2022-11-08T10:45:56.320Z,17.34314
2022-11-08T10:47:06.087Z,17.302856
2022-11-08T10:48:17.380Z,17.242432
2022-11-08T10:49:25.888Z,17.22229
2022-11-08T10:50:34.048Z,17.161865
2022-11-08T10:51:42.817Z,17.121582
2022-11-08T10:52:51.690Z,17.111511
2022-11-08T10:54:00.489Z,17.09137
2022-11-08T10:55:10.263Z,17.051086
2022-11-08T10:56:19.076Z,17.010803
2022-11-08T10:57:28.943Z,16.940308
2022-11-08T10:58:37.724Z,16.930237
2022-11-08T10:59:46.467Z,16.910095
2022-11-08T11:00:56.255Z,16.940308
2022-11-08T11:02:05.085Z,16.869812
2022-11-08T11:03:13.801Z,16.759033
2022-11-08T11:04:23.628Z,16.708679
2022-11-08T11:05:31.427Z,16.738892
2022-11-08T11:06:41.266Z,16.829529
2022-11-08T11:07:50.059Z,16.869812
2022-11-08T11:09:00.755Z,16.940308
2022-11-08T11:10:10.558Z,17.061157
2022-11-08T11:11:20.307Z,17.202148
2022-11-08T11:12:29.148Z,17.333069
2022-11-08T11:13:38.922Z,17.453918
2022-11-08T11:14:47.667Z,17.625122
2022-11-08T11:15:57.470Z,17.816467
2022-11-08T11:17:06.212Z,17.997742
2022-11-08T11:18:15.303Z,18.189087
2022-11-08T11:19:24.829Z,18.309937
2022-11-08T11:20:33.580Z,18.440857
2022-11-08T11:21:42.370Z,18.471069
2022-11-08T11:22:52.257Z,18.682556
2022-11-08T11:24:00.092Z,18.863831
2022-11-08T11:25:09.887Z,18.924255
2022-11-08T11:26:18.689Z,19.145813
2022-11-08T11:27:27.464Z,19.296875
2022-11-08T11:28:37.883Z,19.478149
2022-11-08T11:29:47.633Z,19.659424
2022-11-08T11:30:57.355Z,19.699707
2022-11-08T11:32:07.159Z,19.578857
2022-11-08T11:33:14.999Z,19.699707
2022-11-08T11:34:24.702Z,19.911194
2022-11-08T11:35:33.447Z,20.183105
2022-11-08T11:36:41.183Z,20.394592
2022-11-08T11:37:50.955Z,20.555725
2022-11-08T11:38:59.808Z,20.646362
2022-11-08T11:40:09.452Z,20.626221
2022-11-08T11:41:19.238Z,20.374451
2022-11-08T11:43:37.699Z,20.646362
2022-11-08T11:44:46.521Z,20.847778
2022-11-08T11:45:56.319Z,20.98877
2022-11-08T11:47:06.085Z,21.018982
2022-11-08T11:48:15.135Z,21.139832
2022-11-08T11:49:23.599Z,21.200256
2022-11-08T11:50:33.344Z,21.210327
2022-11-08T11:51:42.219Z,21.210327
2022-11-08T11:52:51.912Z,21.331177
2022-11-08T11:54:00.598Z,20.918274
2022-11-08T11:55:09.363Z,20.968628
2022-11-08T11:56:19.027Z,20.777283
2022-11-08T11:57:26.748Z,20.434875
2022-11-08T11:58:35.650Z,20.596008
2022-11-08T11:59:45.442Z,20.807495
2022-11-08T12:00:54.207Z,20.918274
2022-11-08T12:02:04.025Z,21.109619
2022-11-08T12:03:13.698Z,21.210327
2022-11-08T12:04:21.535Z,21.25061
2022-11-08T12:05:31.351Z,21.139832
2022-11-08T12:06:39.142Z,20.847778
2022-11-08T12:07:48.877Z,20.596008
2022-11-08T12:08:58.605Z,20.475159
2022-11-08T12:10:07.463Z,20.797424
2022-11-08T12:11:17.231Z,21.069336
2022-11-08T12:12:27.022Z,21.139832
2022-11-08T12:13:35.750Z,20.968628
2022-11-08T12:14:45.526Z,20.98877
2022-11-08T12:15:53.369Z,21.059265
2022-11-08T12:17:03.289Z,21.069336
2022-11-08T12:18:15.393Z,21.029053
2022-11-08T12:19:23.951Z,21.11969
2022-11-08T12:20:33.748Z,21.452026
2022-11-08T12:21:41.548Z,21.62323
2022-11-08T12:22:50.257Z,21.582947
2022-11-08T12:23:58.970Z,21.582947
2022-11-08T12:25:08.709Z,21.50238
2022-11-08T12:26:17.509Z,21.572876
2022-11-08T12:27:27.342Z,21.552734
2022-11-08T12:28:41.203Z,21.421814
2022-11-08T12:29:45.911Z,21.361389
2022-11-08T12:30:55.597Z,21.25061
2022-11-08T12:32:05.510Z,20.898132
2022-11-08T12:33:15.284Z,20.948486
2022-11-08T12:34:25.120Z,21.069336
2022-11-08T12:35:33.947Z,21.25061
2022-11-08T12:36:43.687Z,21.37146
2022-11-08T12:37:53.637Z,21.049194
2022-11-08T12:39:02.588Z,20.626221
2022-11-08T12:40:12.482Z,20.344238
2022-11-08T12:41:21.162Z,20.162964
2022-11-08T12:42:29.950Z,20.142822
2022-11-08T12:43:39.777Z,20.505371
2022-11-08T12:44:48.639Z,20.777283
2022-11-08T12:45:58.423Z,21.029053
2022-11-08T12:47:08.181Z,21.089478
2022-11-08T12:48:17.251Z,21.109619
2022-11-08T12:49:26.683Z,20.898132
2022-11-08T12:50:36.463Z,20.918274
2022-11-08T12:51:46.382Z,20.817566
2022-11-08T12:52:56.135Z,20.837708
2022-11-08T12:54:04.897Z,20.958557
2022-11-08T12:55:14.617Z,21.139832
2022-11-08T12:56:23.466Z,21.270752
2022-11-08T12:57:32.216Z,21.331177
2022-11-08T12:58:41.967Z,21.361389
2022-11-08T12:59:49.798Z,21.321106
2022-11-08T13:00:58.618Z,21.290894
2022-11-08T13:02:08.320Z,21.572876
2022-11-08T13:03:18.053Z,21.734009
2022-11-08T13:04:27.805Z,21.925354
2022-11-08T13:05:36.602Z,21.945496
2022-11-08T13:06:45.388Z,21.693726
2022-11-08T13:07:54.194Z,21.431885
2022-11-08T13:09:02.950Z,21.673584
2022-11-08T13:10:12.994Z,21.774292
2022-11-08T13:11:22.585Z,21.885071
2022-11-08T13:12:31.388Z,21.663513
2022-11-08T13:13:40.186Z,21.603088
2022-11-08T13:14:48.890Z,21.603088
2022-11-08T13:15:57.635Z,21.431885
2022-11-08T13:17:07.451Z,21.37146
2022-11-08T13:18:15.276Z,21.37146
2022-11-08T13:19:23.934Z,21.321106
2022-11-08T13:20:33.720Z,21.200256
2022-11-08T13:21:42.543Z,21.109619
2022-11-08T13:22:52.284Z,20.918274
2022-11-08T13:24:06.599Z,20.847778
2022-11-08T13:25:11.778Z,20.646362
2022-11-08T13:26:22.529Z,20.696716
2022-11-08T13:27:31.982Z,20.837708
2022-11-08T13:28:42.940Z,21.109619